createdAt,value
2019-04-05T00:00:54.488Z,0.00
2019-04-05T00:01:54.468Z,0.00
2019-04-05T00:02:54.452Z,0.00
2019-04-05T00:03:54.464Z,0.00
2019-04-05T00:04:54.448Z,0.00
2019-04-05T00:05:54.429Z,0.00
2019-04-05T00:07:01.973Z,0.00
2019-04-05T00:08:01.936Z,0.00
2019-04-05T00:08:54.387Z,0.00
2019-04-05T00:09:54.416Z,0.00
2019-04-05T00:10:54.377Z,0.00
2019-04-05T00:11:54.356Z,0.00
2019-04-05T00:12:54.383Z,0.00
2019-04-05T00:13:54.333Z,0.00
2019-04-05T00:14:54.322Z,0.00
2019-04-05T00:15:54.364Z,0.00
2019-04-05T00:16:54.304Z,0.00
2019-04-05T00:17:54.332Z,0.00
2019-04-05T00:18:54.279Z,0.00
2019-04-05T00:19:54.269Z,0.00
2019-04-05T00:20:54.276Z,0.00
2019-04-05T00:21:54.251Z,0.00
2019-04-05T00:22:54.242Z,0.00
2019-04-05T00:23:54.228Z,0.00
2019-04-05T00:24:54.232Z,0.00
2019-04-05T00:25:54.204Z,0.00
2019-04-05T00:26:54.230Z,0.00
2019-04-05T00:27:54.177Z,0.00
2019-04-05T00:29:01.714Z,0.00
2019-04-05T00:30:01.732Z,0.00
2019-04-05T00:30:54.146Z,0.00
2019-04-05T00:31:54.157Z,0.00
2019-04-05T00:32:54.147Z,0.00
2019-04-05T00:33:54.114Z,0.00
2019-04-05T00:34:54.102Z,0.00
2019-04-05T00:35:54.115Z,0.00
2019-04-05T00:36:54.173Z,0.00
2019-04-05T00:37:54.084Z,0.00
2019-04-05T00:38:54.059Z,0.00
2019-04-05T00:39:54.064Z,0.00
2019-04-05T00:40:54.066Z,0.00
2019-04-05T00:41:54.025Z,0.00
2019-04-05T00:42:54.028Z,0.00
2019-04-05T00:43:54.061Z,0.00
2019-04-05T00:44:54.092Z,0.00
2019-04-05T00:45:54.032Z,0.00
2019-04-05T00:46:53.981Z,0.00
2019-04-05T00:47:53.960Z,0.00
2019-04-05T00:48:54.010Z,0.00
2019-04-05T00:49:53.942Z,0.00
2019-04-05T00:50:53.948Z,0.00
2019-04-05T00:51:53.915Z,0.00
2019-04-05T00:52:53.917Z,0.00
2019-04-05T00:53:53.898Z,0.00
2019-04-05T00:54:53.978Z,0.00
2019-04-05T00:55:53.900Z,0.00
2019-04-05T00:56:53.882Z,0.00
2019-04-05T00:57:53.852Z,0.00
2019-04-05T00:58:53.862Z,0.00
2019-04-05T00:59:53.827Z,0.00
2019-04-05T01:00:53.821Z,0.00
2019-04-05T01:01:53.833Z,0.00
2019-04-05T01:02:53.830Z,0.00
2019-04-05T01:03:53.785Z,0.00
2019-04-05T01:04:53.772Z,0.00
2019-04-05T01:05:53.798Z,0.00
2019-04-05T01:06:53.770Z,0.00
2019-04-05T01:07:53.764Z,0.00
2019-04-05T01:08:53.741Z,0.00
2019-04-05T01:09:53.719Z,0.00
2019-04-05T01:10:53.726Z,0.00
2019-04-05T01:11:53.716Z,0.00
2019-04-05T01:12:53.692Z,0.00
2019-04-05T01:13:53.681Z,0.00
2019-04-05T01:14:53.662Z,0.00
2019-04-05T01:15:53.651Z,0.00
2019-04-05T01:16:53.707Z,0.00
2019-04-05T01:17:53.638Z,0.00
2019-04-05T01:18:53.624Z,0.00
2019-04-05T01:19:53.673Z,0.00
2019-04-05T01:20:53.627Z,0.00
2019-04-05T01:21:53.614Z,0.00
2019-04-05T01:22:53.578Z,0.00
2019-04-05T01:23:53.611Z,0.00
2019-04-05T01:24:53.553Z,0.00
2019-04-05T01:25:53.543Z,0.00
2019-04-05T01:26:53.578Z,0.00
2019-04-05T01:27:53.524Z,0.00
2019-04-05T01:28:53.511Z,0.00
2019-04-05T01:29:53.500Z,0.00
2019-04-05T01:30:53.528Z,0.00
2019-04-05T01:31:53.498Z,0.00
2019-04-05T01:32:53.469Z,0.00
2019-04-05T01:33:53.464Z,0.00
2019-04-05T01:34:53.453Z,0.00
2019-04-05T01:35:53.479Z,0.00
2019-04-05T01:36:53.472Z,0.00
2019-04-05T01:37:53.413Z,0.00
2019-04-05T01:38:53.399Z,0.00
2019-04-05T01:39:53.391Z,0.00
2019-04-05T01:40:53.380Z,0.00
2019-04-05T01:41:53.388Z,0.00
2019-04-05T01:42:53.385Z,0.00
2019-04-05T01:43:53.385Z,0.00
2019-04-05T01:44:53.336Z,0.00
2019-04-05T01:45:54.260Z,0.00
2019-04-05T01:46:53.342Z,0.00
2019-04-05T01:47:53.311Z,0.00
2019-04-05T01:48:53.313Z,0.00
2019-04-05T01:49:53.284Z,0.00
2019-04-05T01:50:53.264Z,0.00
2019-04-05T01:51:53.279Z,0.00
2019-04-05T01:52:53.251Z,0.00
2019-04-05T01:53:53.247Z,0.00
2019-04-05T01:54:53.221Z,0.00
2019-04-05T01:55:53.219Z,0.00
2019-04-05T01:56:53.293Z,0.00
2019-04-05T01:57:53.195Z,0.00
2019-04-05T01:58:53.188Z,0.00
2019-04-05T01:59:53.168Z,0.00
2019-04-05T02:00:53.156Z,0.00
2019-04-05T02:01:53.175Z,0.00
2019-04-05T02:02:53.201Z,0.00
2019-04-05T02:03:53.137Z,0.00
2019-04-05T02:04:53.146Z,0.00
2019-04-05T02:05:53.105Z,0.00
2019-04-05T02:06:53.098Z,0.00
2019-04-05T02:07:53.104Z,0.00
2019-04-05T02:08:53.073Z,0.00
2019-04-05T02:09:53.094Z,0.00
2019-04-05T02:10:53.060Z,0.00
2019-04-05T02:11:53.036Z,0.00
2019-04-05T02:12:53.051Z,0.00
2019-04-05T02:13:53.017Z,0.00
2019-04-05T02:14:53.013Z,0.00
2019-04-05T02:16:05.348Z,0.00
2019-04-05T02:16:54.054Z,0.00
2019-04-05T02:17:53.019Z,0.00
2019-04-05T02:18:52.960Z,0.00
2019-04-05T02:19:52.950Z,0.00
2019-04-05T02:20:52.943Z,0.00
2019-04-05T02:21:52.940Z,0.00
2019-04-05T02:22:52.946Z,0.00
2019-04-05T02:23:52.912Z,0.00
2019-04-05T02:24:52.931Z,0.00
2019-04-05T02:25:52.887Z,0.00
2019-04-05T02:26:52.877Z,0.00
2019-04-05T02:27:52.901Z,0.00
2019-04-05T02:28:52.856Z,0.00
2019-04-05T02:29:52.845Z,0.00
2019-04-05T02:30:52.834Z,0.00
2019-04-05T02:31:52.839Z,0.00
2019-04-05T02:32:52.852Z,0.00
2019-04-05T02:33:52.801Z,0.00
2019-04-05T02:34:52.792Z,0.00
2019-04-05T02:35:52.786Z,0.00
2019-04-05T02:36:52.771Z,0.00
2019-04-05T02:37:52.785Z,0.00
2019-04-05T02:38:52.768Z,0.00
2019-04-05T02:39:52.791Z,0.00
2019-04-05T02:40:52.727Z,0.00
2019-04-05T02:41:52.719Z,0.00
2019-04-05T02:42:52.724Z,0.00
2019-04-05T02:43:52.695Z,0.00
2019-04-05T02:44:52.688Z,0.00
2019-04-05T02:45:52.685Z,0.00
2019-04-05T02:46:52.699Z,0.00
2019-04-05T02:47:52.698Z,0.00
2019-04-05T02:48:52.659Z,0.00
2019-04-05T02:49:52.635Z,0.00
2019-04-05T02:50:52.620Z,0.00
2019-04-05T02:51:52.606Z,0.00
2019-04-05T02:52:52.622Z,0.00
2019-04-05T02:53:52.593Z,0.00
2019-04-05T02:54:52.578Z,0.00
2019-04-05T02:55:52.652Z,0.00
2019-04-05T02:56:52.553Z,0.00
2019-04-05T02:57:52.560Z,0.00
2019-04-05T02:58:52.533Z,0.00
2019-04-05T02:59:52.563Z,0.00
2019-04-05T03:00:52.512Z,0.00
2019-04-05T03:01:52.508Z,0.00
2019-04-05T03:02:52.513Z,0.00
2019-04-05T03:03:52.477Z,0.00
2019-04-05T03:04:52.497Z,0.00
2019-04-05T03:05:52.504Z,0.00
2019-04-05T03:06:52.463Z,0.00
2019-04-05T03:07:52.459Z,0.00
2019-04-05T03:08:52.453Z,0.00
2019-04-05T03:09:52.417Z,0.00
2019-04-05T03:10:52.411Z,0.00
2019-04-05T03:11:52.396Z,0.00
2019-04-05T03:12:52.410Z,0.00
2019-04-05T03:13:52.388Z,0.00
2019-04-05T03:14:52.374Z,0.00
2019-04-05T03:15:52.355Z,0.00
2019-04-05T03:16:52.348Z,0.00
2019-04-05T03:17:52.354Z,0.00
2019-04-05T03:18:52.322Z,0.00
2019-04-05T03:19:52.314Z,0.00
2019-04-05T03:21:01.176Z,0.00
2019-04-05T03:21:52.287Z,0.00
2019-04-05T03:22:52.301Z,0.00
2019-04-05T03:23:52.305Z,0.00
2019-04-05T03:24:52.265Z,0.00
2019-04-05T03:25:52.247Z,0.00
2019-04-05T03:26:52.237Z,0.00
2019-04-05T03:27:52.288Z,0.00
2019-04-05T03:28:52.212Z,0.00
2019-04-05T03:29:59.756Z,0.00
2019-04-05T03:30:59.739Z,0.00
2019-04-05T03:31:52.184Z,0.00
2019-04-05T03:32:52.202Z,0.00
2019-04-05T03:33:59.735Z,0.00
2019-04-05T03:34:59.703Z,0.00
2019-04-05T03:35:52.138Z,0.00
2019-04-05T03:36:59.721Z,0.00
2019-04-05T03:37:52.140Z,0.00
2019-04-05T03:38:59.652Z,0.00
2019-04-05T03:39:52.096Z,0.00
2019-04-05T03:40:52.104Z,0.00
2019-04-05T03:41:52.082Z,0.00
2019-04-05T03:42:52.089Z,0.00
2019-04-05T03:43:52.120Z,0.00
2019-04-05T03:44:52.039Z,0.00
2019-04-05T03:45:52.030Z,0.00
2019-04-05T03:46:59.619Z,0.00
2019-04-05T03:47:52.024Z,0.00
2019-04-05T03:49:00.772Z,0.00
2019-04-05T03:49:59.539Z,0.00
2019-04-05T03:50:51.971Z,0.00
2019-04-05T03:51:51.967Z,0.00
2019-04-05T03:52:51.975Z,0.00
2019-04-05T03:53:52.014Z,0.00
2019-04-05T03:54:51.934Z,0.00
2019-04-05T03:55:51.922Z,0.00
2019-04-05T03:56:51.913Z,0.00
2019-04-05T03:57:51.913Z,0.00
2019-04-05T03:58:51.927Z,0.00
2019-04-05T03:59:51.875Z,0.00
2019-04-05T04:00:51.936Z,0.00
2019-04-05T04:01:51.851Z,0.00
2019-04-05T04:02:51.843Z,0.00
2019-04-05T04:03:51.829Z,0.00
2019-04-05T04:04:51.849Z,0.00
2019-04-05T04:05:51.822Z,0.00
2019-04-05T04:06:51.854Z,0.00
2019-04-05T04:07:51.793Z,0.00
2019-04-05T04:08:51.804Z,0.00
2019-04-05T04:09:51.822Z,0.00
2019-04-05T04:10:51.826Z,0.00
2019-04-05T04:11:51.791Z,0.00
2019-04-05T04:12:51.868Z,0.00
2019-04-05T04:13:51.723Z,0.00
2019-04-05T04:14:51.741Z,0.00
2019-04-05T04:15:51.701Z,0.00
2019-04-05T04:16:51.696Z,0.00
2019-04-05T04:17:51.715Z,0.00
2019-04-05T04:18:51.671Z,0.00
2019-04-05T04:19:51.706Z,0.00
2019-04-05T04:20:51.650Z,0.00
2019-04-05T04:21:51.646Z,0.00
2019-04-05T04:22:51.629Z,0.00
2019-04-05T04:23:51.617Z,0.00
2019-04-05T04:24:51.650Z,0.00
2019-04-05T04:25:51.651Z,0.00
2019-04-05T04:26:51.586Z,0.00
2019-04-05T04:27:51.605Z,0.00
2019-04-05T04:28:51.697Z,0.00
2019-04-05T04:29:51.602Z,0.00
2019-04-05T04:30:51.619Z,0.00
2019-04-05T04:31:51.530Z,0.00
2019-04-05T04:32:51.565Z,0.00
2019-04-05T04:33:51.519Z,0.00
2019-04-05T04:34:51.544Z,0.00
2019-04-05T04:35:51.510Z,0.00
2019-04-05T04:36:51.480Z,0.00
2019-04-05T04:37:51.467Z,0.00
2019-04-05T04:38:51.456Z,0.00
2019-04-05T04:39:51.447Z,0.00
2019-04-05T04:40:51.453Z,0.00
2019-04-05T04:41:51.421Z,0.00
2019-04-05T04:42:51.425Z,0.00
2019-04-05T04:43:51.413Z,0.00
2019-04-05T04:44:51.388Z,0.00
2019-04-05T04:45:51.525Z,0.00
2019-04-05T04:46:51.646Z,0.00
2019-04-05T04:47:51.355Z,0.00
2019-04-05T04:48:58.971Z,0.00
2019-04-05T04:49:51.338Z,0.00
2019-04-05T04:50:51.347Z,0.00
2019-04-05T04:51:51.312Z,0.00
2019-04-05T04:52:51.307Z,0.00
2019-04-05T04:53:51.304Z,0.00
2019-04-05T04:54:58.885Z,0.00
2019-04-05T04:55:58.389Z,0.00
2019-04-05T04:56:58.852Z,0.00
2019-04-05T04:57:51.250Z,0.00
2019-04-05T04:58:51.243Z,0.00
2019-04-05T04:59:51.265Z,0.00
2019-04-05T05:00:51.234Z,0.00
2019-04-05T05:01:51.203Z,0.00
2019-04-05T05:02:51.191Z,0.00
2019-04-05T05:03:51.186Z,0.00
2019-04-05T05:04:51.219Z,0.00
2019-04-05T05:05:51.202Z,0.00
2019-04-05T05:06:51.200Z,0.00
2019-04-05T05:07:51.163Z,0.00
2019-04-05T05:08:58.730Z,0.00
2019-04-05T05:09:51.227Z,0.00
2019-04-05T05:10:51.125Z,0.00
2019-04-05T05:11:51.099Z,0.00
2019-04-05T05:12:51.080Z,0.00
2019-04-05T05:13:51.071Z,0.00
2019-04-05T05:14:51.064Z,0.00
2019-04-05T05:15:51.070Z,0.00
2019-04-05T05:16:51.051Z,0.00
2019-04-05T05:17:58.434Z,0.00
2019-04-05T05:18:52.018Z,0.00
2019-04-05T05:19:51.004Z,0.00
2019-04-05T05:20:51.000Z,5.62
2019-04-05T05:21:51.008Z,5.62
2019-04-05T05:22:50.987Z,5.62
2019-04-05T05:23:59.563Z,5.62
2019-04-05T05:24:59.571Z,5.62
2019-04-05T05:25:59.515Z,5.62
2019-04-05T05:26:59.815Z,5.62
2019-04-05T05:27:59.564Z,5.62
2019-04-05T05:28:58.509Z,5.62
2019-04-05T05:29:50.949Z,5.62
2019-04-05T05:31:02.176Z,5.62
2019-04-05T05:31:58.471Z,5.62
2019-04-05T05:32:57.951Z,5.62
2019-04-05T05:33:50.887Z,11.25
2019-04-05T05:35:02.255Z,11.25
2019-04-05T05:35:58.428Z,11.25
2019-04-05T05:36:50.892Z,11.25
2019-04-05T05:37:58.543Z,11.25
2019-04-05T05:38:50.803Z,11.25
2019-04-05T05:39:58.341Z,11.25
2019-04-05T05:40:57.864Z,11.25
2019-04-05T05:41:50.803Z,11.25
2019-04-05T05:42:58.413Z,11.25
2019-04-05T05:43:58.342Z,11.25
2019-04-05T05:44:58.305Z,11.25
2019-04-05T05:45:58.352Z,16.88
2019-04-05T05:46:50.719Z,16.88
2019-04-05T05:47:52.394Z,16.88
2019-04-05T05:48:58.297Z,16.88
2019-04-05T05:49:59.288Z,16.88
2019-04-05T05:50:59.257Z,22.50
2019-04-05T05:51:59.512Z,22.50
2019-04-05T05:52:57.768Z,22.50
2019-04-05T05:53:59.223Z,22.50
2019-04-05T05:54:58.435Z,22.50
2019-04-05T05:55:58.242Z,22.50
2019-04-05T05:57:00.581Z,22.50
2019-04-05T05:57:58.745Z,28.12
2019-04-05T05:58:59.601Z,28.12
2019-04-05T05:59:58.492Z,28.12
2019-04-05T06:00:57.680Z,28.12
2019-04-05T06:04:12.672Z,28.12
2019-04-05T06:05:18.742Z,28.12
2019-04-05T06:06:17.084Z,28.12
2019-04-05T06:07:20.134Z,33.75
2019-04-05T06:08:18.846Z,33.75
2019-04-05T06:09:17.573Z,33.75
2019-04-05T06:10:17.546Z,33.75
2019-04-05T06:11:17.557Z,33.75
2019-04-05T06:12:18.546Z,33.75
2019-04-05T06:13:09.974Z,33.75
2019-04-05T06:14:17.586Z,33.75
2019-04-05T06:15:17.524Z,33.75
2019-04-05T06:16:09.906Z,39.38
2019-04-05T06:17:09.896Z,39.38
2019-04-05T06:18:12.749Z,39.38
2019-04-05T06:19:09.878Z,33.75
2019-04-05T06:20:09.881Z,39.38
2019-04-05T06:21:09.849Z,33.75
2019-04-05T06:22:09.905Z,33.75
2019-04-05T06:23:09.851Z,39.38
2019-04-05T06:24:09.854Z,39.38
2019-04-05T06:25:09.808Z,39.38
2019-04-05T06:26:09.835Z,45.00
2019-04-05T06:27:09.786Z,45.00
2019-04-05T06:28:09.776Z,39.38
2019-04-05T06:29:09.798Z,39.38
2019-04-05T06:30:09.758Z,39.38
2019-04-05T06:31:09.785Z,45.00
2019-04-05T06:32:09.730Z,45.00
2019-04-05T06:33:09.720Z,45.00
2019-04-05T06:34:09.728Z,45.00
2019-04-05T06:35:09.703Z,45.00
2019-04-05T06:36:09.688Z,45.00
2019-04-05T06:37:09.674Z,39.38
2019-04-05T06:38:09.663Z,39.38
2019-04-05T06:39:09.673Z,45.00
2019-04-05T06:40:09.642Z,45.00
2019-04-05T06:41:09.668Z,45.00
2019-04-05T06:42:09.734Z,45.00
2019-04-05T06:43:09.691Z,39.38
2019-04-05T06:44:09.625Z,39.38
2019-04-05T06:45:09.635Z,45.00
2019-04-05T06:46:09.595Z,50.62
2019-04-05T06:47:09.563Z,50.62
2019-04-05T06:48:19.200Z,56.25
2019-04-05T06:49:10.558Z,56.25
2019-04-05T06:50:09.537Z,56.25
2019-04-05T06:51:09.589Z,50.62
2019-04-05T06:52:09.585Z,50.62
2019-04-05T06:53:09.501Z,50.62
2019-04-05T06:54:09.504Z,56.25
2019-04-05T06:55:09.484Z,61.88
2019-04-05T06:56:09.466Z,67.50
2019-04-05T06:57:09.501Z,73.12
2019-04-05T06:58:10.456Z,78.75
2019-04-05T06:59:19.428Z,78.75
2019-04-05T07:00:09.455Z,84.38
2019-04-05T07:01:16.996Z,84.38
2019-04-05T07:02:18.523Z,84.38
2019-04-05T07:03:09.403Z,84.38
2019-04-05T07:04:09.470Z,84.38
2019-04-05T07:05:09.376Z,84.38
2019-04-05T07:06:09.356Z,84.38
2019-04-05T07:07:09.349Z,90.00
2019-04-05T07:08:09.342Z,90.00
2019-04-05T07:09:09.321Z,95.62
2019-04-05T07:10:09.360Z,95.62
2019-04-05T07:11:09.311Z,95.62
2019-04-05T07:12:09.317Z,101.25
2019-04-05T07:13:09.423Z,101.25
2019-04-05T07:14:09.272Z,106.88
2019-04-05T07:15:09.322Z,106.88
2019-04-05T07:16:11.108Z,106.88
2019-04-05T07:17:09.240Z,101.25
2019-04-05T07:18:09.231Z,101.25
2019-04-05T07:19:09.371Z,101.25
2019-04-05T07:20:09.254Z,95.62
2019-04-05T07:21:09.208Z,84.38
2019-04-05T07:22:09.185Z,84.38
2019-04-05T07:23:09.174Z,78.75
2019-04-05T07:24:09.162Z,78.75
2019-04-05T07:25:09.173Z,84.38
2019-04-05T07:26:09.141Z,90.00
2019-04-05T07:27:09.127Z,95.62
2019-04-05T07:28:09.119Z,106.88
2019-04-05T07:29:09.111Z,106.88
2019-04-05T07:30:09.093Z,112.50
2019-04-05T07:31:09.118Z,112.50
2019-04-05T07:32:09.074Z,123.75
2019-04-05T07:33:09.067Z,123.75
2019-04-05T07:34:09.052Z,118.12
2019-04-05T07:35:09.088Z,123.75
2019-04-05T07:36:09.049Z,135.00
2019-04-05T07:37:09.035Z,140.62
2019-04-05T07:38:09.865Z,140.62
2019-04-05T07:39:08.994Z,140.62
2019-04-05T07:40:08.995Z,140.62
2019-04-05T07:41:08.995Z,146.25
2019-04-05T07:42:08.966Z,140.62
2019-04-05T07:43:08.974Z,140.62
2019-04-05T07:44:08.953Z,146.25
2019-04-05T07:45:08.934Z,157.50
2019-04-05T07:46:08.944Z,163.12
2019-04-05T07:47:08.971Z,151.88
2019-04-05T07:48:08.914Z,157.50
2019-04-05T07:49:08.887Z,157.50
2019-04-05T07:50:08.906Z,185.62
2019-04-05T07:51:08.888Z,180.00
2019-04-05T07:52:08.853Z,196.88
2019-04-05T07:53:08.905Z,180.00
2019-04-05T07:54:08.834Z,174.38
2019-04-05T07:55:16.395Z,208.12
2019-04-05T07:56:08.827Z,213.75
2019-04-05T07:57:08.854Z,163.12
2019-04-05T07:58:08.800Z,180.00
2019-04-05T07:59:08.779Z,185.62
2019-04-05T08:00:08.770Z,225.00
2019-04-05T08:01:08.756Z,241.88
2019-04-05T08:02:08.772Z,196.88
2019-04-05T08:03:08.737Z,185.62
2019-04-05T08:04:08.741Z,185.62
2019-04-05T08:05:08.749Z,174.38
2019-04-05T08:06:08.739Z,168.75
2019-04-05T08:07:08.691Z,180.00
2019-04-05T08:08:08.738Z,213.75
2019-04-05T08:09:08.673Z,213.75
2019-04-05T08:10:08.674Z,191.25
2019-04-05T08:11:08.715Z,208.12
2019-04-05T08:12:08.674Z,213.75
2019-04-05T08:13:08.631Z,196.88
2019-04-05T08:14:08.626Z,213.75
2019-04-05T08:15:08.634Z,196.88
2019-04-05T08:16:08.595Z,208.12
2019-04-05T08:17:08.622Z,202.50
2019-04-05T08:18:08.569Z,213.75
2019-04-05T08:19:08.617Z,202.50
2019-04-05T08:20:08.551Z,208.12
2019-04-05T08:21:08.570Z,208.12
2019-04-05T08:22:08.534Z,202.50
2019-04-05T08:23:08.544Z,208.12
2019-04-05T08:24:08.507Z,219.38
2019-04-05T08:25:08.495Z,236.25
2019-04-05T08:26:08.520Z,253.12
2019-04-05T08:27:08.497Z,258.75
2019-04-05T08:28:08.477Z,264.38
2019-04-05T08:29:08.453Z,270.00
2019-04-05T08:30:08.439Z,270.00
2019-04-05T08:31:10.852Z,264.38
2019-04-05T08:32:14.344Z,275.62
2019-04-05T08:33:09.432Z,292.50
2019-04-05T08:34:08.494Z,315.00
2019-04-05T08:35:08.389Z,326.25
2019-04-05T08:36:08.457Z,343.12
2019-04-05T08:37:08.486Z,331.88
2019-04-05T08:38:08.361Z,326.25
2019-04-05T08:39:08.342Z,298.12
2019-04-05T08:40:08.331Z,275.62
2019-04-05T08:41:08.317Z,247.50
2019-04-05T08:42:10.697Z,236.25
2019-04-05T08:43:08.316Z,213.75
2019-04-05T08:44:08.297Z,168.75
2019-04-05T08:45:08.286Z,135.00
2019-04-05T08:46:08.265Z,129.38
2019-04-05T08:47:08.289Z,146.25
2019-04-05T08:48:08.247Z,163.12
2019-04-05T08:49:10.928Z,202.50
2019-04-05T08:50:08.232Z,236.25
2019-04-05T08:51:08.216Z,264.38
2019-04-05T08:52:08.223Z,236.25
2019-04-05T08:53:08.193Z,208.12
2019-04-05T08:54:08.177Z,174.38
2019-04-05T08:55:08.184Z,157.50
2019-04-05T08:56:08.163Z,151.88
2019-04-05T08:57:08.178Z,140.62
2019-04-05T08:58:08.135Z,140.62
2019-04-05T08:59:08.128Z,151.88
2019-04-05T09:00:08.113Z,157.50
2019-04-05T09:01:08.115Z,151.88
2019-04-05T09:02:08.098Z,135.00
2019-04-05T09:03:08.199Z,129.38
2019-04-05T09:04:08.071Z,129.38
2019-04-05T09:05:08.065Z,135.00
2019-04-05T09:06:08.120Z,140.62
2019-04-05T09:07:08.049Z,157.50
2019-04-05T09:08:08.073Z,180.00
2019-04-05T09:09:08.019Z,208.12
2019-04-05T09:10:08.010Z,225.00
2019-04-05T09:11:08.048Z,230.62
2019-04-05T09:12:08.130Z,247.50
2019-04-05T09:13:07.992Z,264.38
2019-04-05T09:14:08.038Z,241.88
2019-04-05T09:15:07.992Z,219.38
2019-04-05T09:16:07.939Z,180.00
2019-04-05T09:17:07.928Z,157.50
2019-04-05T09:18:07.937Z,151.88
2019-04-05T09:19:08.014Z,123.75
2019-04-05T09:20:07.905Z,129.38
2019-04-05T09:21:10.118Z,112.50
2019-04-05T09:22:07.876Z,101.25
2019-04-05T09:23:07.954Z,95.62
2019-04-05T09:24:07.863Z,112.50
2019-04-05T09:25:07.840Z,118.12
2019-04-05T09:26:07.845Z,118.12
2019-04-05T09:27:07.821Z,135.00
2019-04-05T09:28:07.852Z,135.00
2019-04-05T09:29:09.296Z,123.75
2019-04-05T09:30:07.789Z,118.12
2019-04-05T09:31:07.795Z,118.12
2019-04-05T09:32:07.811Z,180.00
2019-04-05T09:33:07.775Z,253.12
2019-04-05T09:34:07.748Z,376.88
2019-04-05T09:35:07.745Z,241.88
2019-04-05T09:36:07.762Z,213.75
2019-04-05T09:37:07.733Z,202.50
2019-04-05T09:38:07.706Z,180.00
2019-04-05T09:39:07.722Z,157.50
2019-04-05T09:40:07.676Z,118.12
2019-04-05T09:41:07.670Z,101.25
2019-04-05T09:42:07.683Z,106.88
2019-04-05T09:43:07.689Z,129.38
2019-04-05T09:44:07.639Z,157.50
2019-04-05T09:45:07.621Z,163.12
2019-04-05T09:46:07.641Z,168.75
2019-04-05T09:47:07.632Z,151.88
2019-04-05T09:48:07.638Z,146.25
2019-04-05T09:49:07.581Z,140.62
2019-04-05T09:50:07.567Z,129.38
2019-04-05T09:51:07.572Z,118.12
2019-04-05T09:52:07.549Z,123.75
2019-04-05T09:53:07.582Z,135.00
2019-04-05T09:54:07.533Z,106.88
2019-04-05T09:55:07.521Z,90.00
2019-04-05T09:56:07.539Z,84.38
2019-04-05T09:57:07.497Z,101.25
2019-04-05T09:58:09.911Z,140.62
2019-04-05T09:59:07.470Z,140.62
2019-04-05T10:00:07.462Z,129.38
2019-04-05T10:01:07.453Z,123.75
2019-04-05T10:02:07.459Z,123.75
2019-04-05T10:03:07.541Z,118.12
2019-04-05T10:04:07.419Z,123.75
2019-04-05T10:05:07.435Z,123.75
2019-04-05T10:06:07.443Z,118.12
2019-04-05T10:07:07.398Z,118.12
2019-04-05T10:08:07.373Z,123.75
2019-04-05T10:09:07.393Z,112.50
2019-04-05T10:10:07.380Z,118.12
2019-04-05T10:11:07.395Z,129.38
2019-04-05T10:12:07.359Z,123.75
2019-04-05T10:13:09.652Z,112.50
2019-04-05T10:14:07.328Z,106.88
2019-04-05T10:15:07.302Z,112.50
2019-04-05T10:16:07.328Z,112.50
2019-04-05T10:17:07.295Z,118.12
2019-04-05T10:18:07.294Z,118.12
2019-04-05T10:19:07.272Z,118.12
2019-04-05T10:20:07.240Z,123.75
2019-04-05T10:21:07.294Z,129.38
2019-04-05T10:22:07.219Z,151.88
2019-04-05T10:23:07.256Z,180.00
2019-04-05T10:24:07.271Z,196.88
2019-04-05T10:25:07.189Z,174.38
2019-04-05T10:26:07.176Z,135.00
2019-04-05T10:27:07.183Z,135.00
2019-04-05T10:28:07.173Z,163.12
2019-04-05T10:29:07.213Z,151.88
2019-04-05T10:30:07.141Z,140.62
2019-04-05T10:31:07.125Z,135.00
2019-04-05T10:32:07.123Z,140.62
2019-04-05T10:33:07.100Z,146.25
2019-04-05T10:34:07.213Z,129.38
2019-04-05T10:35:07.078Z,129.38
2019-04-05T10:36:07.071Z,135.00
2019-04-05T10:37:07.056Z,140.62
2019-04-05T10:38:07.053Z,135.00
2019-04-05T10:39:07.051Z,146.25
2019-04-05T10:40:07.082Z,157.50
2019-04-05T10:41:07.013Z,163.12
2019-04-05T10:42:07.008Z,151.88
2019-04-05T10:43:06.987Z,151.88
2019-04-05T10:44:07.038Z,146.25
2019-04-05T10:45:06.982Z,140.62
2019-04-05T10:46:06.960Z,146.25
2019-04-05T10:47:06.947Z,151.88
2019-04-05T10:48:06.953Z,140.62
2019-04-05T10:49:06.955Z,118.12
2019-04-05T10:50:06.930Z,112.50
2019-04-05T10:51:06.925Z,112.50
2019-04-05T10:52:06.936Z,106.88
2019-04-05T10:53:06.882Z,95.62
2019-04-05T10:54:09.263Z,84.38
2019-04-05T10:55:06.892Z,78.75
2019-04-05T10:56:06.848Z,78.75
2019-04-05T10:57:06.839Z,78.75
2019-04-05T10:58:06.831Z,78.75
2019-04-05T10:59:06.816Z,73.12
2019-04-05T11:00:06.823Z,67.50
2019-04-05T11:01:06.795Z,67.50
2019-04-05T11:02:06.789Z,67.50
2019-04-05T11:03:06.795Z,67.50
2019-04-05T11:04:06.793Z,67.50
2019-04-05T11:05:06.824Z,67.50
2019-04-05T11:06:06.797Z,61.88
2019-04-05T11:07:06.727Z,61.88
2019-04-05T11:08:06.722Z,67.50
2019-04-05T11:09:06.714Z,73.12
2019-04-05T11:10:06.775Z,73.12
2019-04-05T11:11:06.688Z,67.50
2019-04-05T11:12:08.629Z,67.50
2019-04-05T11:13:06.674Z,73.12
2019-04-05T11:14:13.513Z,73.12
2019-04-05T11:15:07.673Z,73.12
2019-04-05T11:16:06.634Z,73.12
2019-04-05T11:17:06.619Z,73.12
2019-04-05T11:18:06.608Z,78.75
2019-04-05T11:19:06.600Z,73.12
2019-04-05T11:20:20.151Z,73.12
2019-04-05T11:21:07.602Z,67.50
2019-04-05T11:22:06.568Z,67.50
2019-04-05T11:23:06.554Z,73.12
2019-04-05T11:24:06.569Z,73.12
2019-04-05T11:25:06.558Z,73.12
2019-04-05T11:26:06.566Z,67.50
2019-04-05T11:27:06.869Z,67.50
2019-04-05T11:28:06.505Z,67.50
2019-04-05T11:29:06.497Z,73.12
2019-04-05T11:30:06.476Z,73.12
2019-04-05T11:31:06.483Z,73.12
2019-04-05T11:32:06.464Z,73.12
2019-04-05T11:33:06.460Z,73.12
2019-04-05T11:34:06.442Z,67.50
2019-04-05T11:35:06.448Z,67.50
2019-04-05T11:36:06.579Z,61.88
2019-04-05T11:37:14.156Z,61.88
2019-04-05T11:38:06.391Z,61.88
2019-04-05T11:39:06.379Z,67.50
2019-04-05T11:40:06.370Z,67.50
2019-04-05T11:41:06.378Z,73.12
2019-04-05T11:42:06.346Z,73.12
2019-04-05T11:43:06.341Z,73.12
2019-04-05T11:44:06.324Z,73.12
2019-04-05T11:45:06.420Z,73.12
2019-04-05T11:46:06.326Z,78.75
2019-04-05T11:47:06.292Z,84.38
2019-04-05T11:48:06.293Z,84.38
2019-04-05T11:49:06.273Z,90.00
2019-04-05T11:50:06.289Z,90.00
2019-04-05T11:51:06.274Z,90.00
2019-04-05T11:52:06.263Z,90.00
2019-04-05T11:53:06.225Z,90.00
2019-04-05T11:54:06.215Z,84.38
2019-04-05T11:55:06.213Z,84.38
2019-04-05T11:56:14.660Z,84.38
2019-04-05T11:57:07.223Z,84.38
2019-04-05T11:58:13.749Z,84.38
2019-04-05T11:59:06.161Z,84.38
2019-04-05T12:00:06.147Z,78.75
2019-04-05T12:01:06.138Z,84.38
2019-04-05T12:02:06.149Z,84.38
2019-04-05T12:03:06.115Z,84.38
2019-04-05T12:04:06.105Z,84.38
2019-04-05T12:05:06.216Z,84.38
2019-04-05T12:06:06.091Z,84.38
2019-04-05T12:07:06.100Z,84.38
2019-04-05T12:08:06.059Z,84.38
2019-04-05T12:09:06.054Z,84.38
2019-04-05T12:10:06.038Z,84.38
2019-04-05T12:11:06.038Z,84.38
2019-04-05T12:12:06.015Z,95.62
2019-04-05T12:13:06.025Z,95.62
2019-04-05T12:14:05.996Z,95.62
2019-04-05T12:15:06.466Z,95.62
2019-04-05T12:16:07.229Z,101.25
2019-04-05T12:17:06.264Z,101.25
2019-04-05T12:18:06.056Z,101.25
2019-04-05T12:19:05.945Z,95.62
2019-04-05T12:20:05.928Z,90.00
2019-04-05T12:21:05.996Z,84.38
2019-04-05T12:22:08.939Z,84.38
2019-04-05T12:23:05.926Z,84.38
2019-04-05T12:24:05.892Z,90.00
2019-04-05T12:25:05.904Z,84.38
2019-04-05T12:26:05.865Z,84.38
2019-04-05T12:27:05.853Z,90.00
2019-04-05T12:28:08.881Z,84.38
2019-04-05T12:29:05.839Z,84.38
2019-04-05T12:30:05.815Z,84.38
2019-04-05T12:31:05.812Z,84.38
2019-04-05T12:32:05.849Z,84.38
2019-04-05T12:33:13.643Z,84.38
2019-04-05T12:34:06.778Z,84.38
2019-04-05T12:35:08.186Z,84.38
2019-04-05T12:36:05.750Z,84.38
2019-04-05T12:37:05.747Z,84.38
2019-04-05T12:38:07.154Z,78.75
2019-04-05T12:39:08.117Z,78.75
2019-04-05T12:40:09.584Z,73.12
2019-04-05T12:41:05.713Z,73.12
2019-04-05T12:42:05.688Z,67.50
2019-04-05T12:43:05.676Z,61.88
2019-04-05T12:44:05.695Z,61.88
2019-04-05T12:45:05.656Z,61.88
2019-04-05T12:46:05.645Z,56.25
2019-04-05T12:47:05.630Z,56.25
2019-04-05T12:48:05.641Z,56.25
2019-04-05T12:49:05.609Z,56.25
2019-04-05T12:50:05.598Z,56.25
2019-04-05T12:51:05.982Z,56.25
2019-04-05T12:52:05.574Z,56.25
2019-04-05T12:53:05.566Z,56.25
2019-04-05T12:54:05.571Z,56.25
2019-04-05T12:55:05.542Z,50.62
2019-04-05T12:56:05.530Z,50.62
2019-04-05T12:57:05.519Z,50.62
2019-04-05T12:58:05.513Z,50.62
2019-04-05T12:59:05.519Z,45.00